sensor_id;sensor_type;location;lat;lon;timestamp;P1;durP1;ratioP1;P2;durP2;ratioP2
18084;SDS011;9169;44.492;11.372;2023-09-19T00:00:37;27.13;;;4.90;;
18084;SDS011;9169;44.492;11.372;2023-09-19T00:03:08;32.67;;;7.47;;
18084;SDS011;9169;44.492;11.372;2023-09-19T00:05:38;41.43;;;8.43;;
18084;SDS011;9169;44.492;11.372;2023-09-19T00:08:11;45.23;;;9.50;;
18084;SDS011;9169;44.492;11.372;2023-09-19T00:10:43;33.27;;;7.43;;
18084;SDS011;9169;44.492;11.372;2023-09-19T00:13:12;35.93;;;6.33;;
18084;SDS011;9169;44.492;11.372;2023-09-19T00:15:42;36.83;;;7.30;;
18084;SDS011;9169;44.492;11.372;2023-09-19T00:18:15;30.50;;;6.63;;
18084;SDS011;9169;44.492;11.372;2023-09-19T00:20:45;27.53;;;6.00;;
18084;SDS011;9169;44.492;11.372;2023-09-19T00:23:16;24.47;;;5.93;;
18084;SDS011;9169;44.492;11.372;2023-09-19T00:25:47;27.03;;;6.30;;
18084;SDS011;9169;44.492;11.372;2023-09-19T00:28:17;29.13;;;6.90;;
18084;SDS011;9169;44.492;11.372;2023-09-19T00:30:47;32.50;;;7.33;;
18084;SDS011;9169;44.492;11.372;2023-09-19T00:33:17;32.53;;;5.47;;
18084;SDS011;9169;44.492;11.372;2023-09-19T00:35:47;27.23;;;7.27;;
18084;SDS011;9169;44.492;11.372;2023-09-19T00:38:17;29.53;;;6.53;;
18084;SDS011;9169;44.492;11.372;2023-09-19T00:40:50;33.30;;;6.83;;
18084;SDS011;9169;44.492;11.372;2023-09-19T00:43:20;27.90;;;6.70;;
18084;SDS011;9169;44.492;11.372;2023-09-19T00:45:52;39.53;;;6.57;;
18084;SDS011;9169;44.492;11.372;2023-09-19T00:48:22;29.80;;;6.30;;
18084;SDS011;9169;44.492;11.372;2023-09-19T00:50:54;22.40;;;5.60;;
18084;SDS011;9169;44.492;11.372;2023-09-19T00:53:24;25.30;;;6.13;;
18084;SDS011;9169;44.492;11.372;2023-09-19T00:55:55;31.63;;;8.20;;
18084;SDS011;9169;44.492;11.372;2023-09-19T00:58:24;30.67;;;8.17;;
18084;SDS011;9169;44.492;11.372;2023-09-19T01:00:53;27.47;;;6.60;;
18084;SDS011;9169;44.492;11.372;2023-09-19T01:03:22;30.23;;;7.70;;
18084;SDS011;9169;44.492;11.372;2023-09-19T01:05:51;28.17;;;6.60;;
18084;SDS011;9169;44.492;11.372;2023-09-19T01:08:20;30.30;;;7.10;;
18084;SDS011;9169;44.492;11.372;2023-09-19T01:10:51;34.83;;;6.90;;
18084;SDS011;9169;44.492;11.372;2023-09-19T01:13:26;33.67;;;7.93;;
18084;SDS011;9169;44.492;11.372;2023-09-19T01:16:03;31.80;;;7.33;;
18084;SDS011;9169;44.492;11.372;2023-09-19T01:18:40;37.20;;;7.40;;
18084;SDS011;9169;44.492;11.372;2023-09-19T01:21:20;40.97;;;8.40;;
18084;SDS011;9169;44.492;11.372;2023-09-19T01:24:05;41.37;;;9.33;;
18084;SDS011;9169;44.492;11.372;2023-09-19T01:27:05;30.17;;;7.20;;
18084;SDS011;9169;44.492;11.372;2023-09-19T01:29:47;33.67;;;8.10;;
18084;SDS011;9169;44.492;11.372;2023-09-19T01:32:19;37.50;;;8.20;;
18084;SDS011;9169;44.492;11.372;2023-09-19T01:34:53;41.87;;;7.43;;
18084;SDS011;9169;44.492;11.372;2023-09-19T01:37:26;43.23;;;8.73;;
18084;SDS011;9169;44.492;11.372;2023-09-19T01:39:56;35.30;;;7.30;;
18084;SDS011;9169;44.492;11.372;2023-09-19T01:42:35;37.67;;;8.50;;
18084;SDS011;9169;44.492;11.372;2023-09-19T01:45:11;30.60;;;7.90;;
18084;SDS011;9169;44.492;11.372;2023-09-19T01:47:46;31.17;;;8.10;;
18084;SDS011;9169;44.492;11.372;2023-09-19T01:50:20;29.10;;;7.13;;
18084;SDS011;9169;44.492;11.372;2023-09-19T01:52:57;31.67;;;7.20;;
18084;SDS011;9169;44.492;11.372;2023-09-19T01:55:36;34.13;;;6.97;;
18084;SDS011;9169;44.492;11.372;2023-09-19T01:58:14;37.23;;;9.27;;
18084;SDS011;9169;44.492;11.372;2023-09-19T02:00:46;32.80;;;8.23;;
18084;SDS011;9169;44.492;11.372;2023-09-19T02:03:20;37.63;;;7.70;;
18084;SDS011;9169;44.492;11.372;2023-09-19T02:05:50;35.17;;;7.30;;
18084;SDS011;9169;44.492;11.372;2023-09-19T02:08:21;31.67;;;8.60;;
18084;SDS011;9169;44.492;11.372;2023-09-19T02:10:51;33.60;;;7.60;;
18084;SDS011;9169;44.492;11.372;2023-09-19T02:13:20;29.77;;;7.23;;
18084;SDS011;9169;44.492;11.372;2023-09-19T02:15:50;35.33;;;8.50;;
18084;SDS011;9169;44.492;11.372;2023-09-19T02:18:20;29.97;;;8.93;;
18084;SDS011;9169;44.492;11.372;2023-09-19T02:20:49;30.23;;;7.93;;
18084;SDS011;9169;44.492;11.372;2023-09-19T02:23:19;33.33;;;8.50;;
18084;SDS011;9169;44.492;11.372;2023-09-19T02:25:51;39.63;;;8.10;;
18084;SDS011;9169;44.492;11.372;2023-09-19T02:28:20;29.53;;;9.60;;
18084;SDS011;9169;44.492;11.372;2023-09-19T02:30:50;38.40;;;8.00;;
18084;SDS011;9169;44.492;11.372;2023-09-19T02:33:21;36.50;;;8.00;;
18084;SDS011;9169;44.492;11.372;2023-09-19T02:35:54;34.50;;;8.00;;
18084;SDS011;9169;44.492;11.372;2023-09-19T02:38:24;38.17;;;8.77;;
18084;SDS011;9169;44.492;11.372;2023-09-19T02:40:53;33.93;;;8.10;;
18084;SDS011;9169;44.492;11.372;2023-09-19T02:43:22;29.83;;;9.07;;
18084;SDS011;9169;44.492;11.372;2023-09-19T02:45:52;34.80;;;7.60;;
18084;SDS011;9169;44.492;11.372;2023-09-19T02:48:23;36.40;;;8.83;;
18084;SDS011;9169;44.492;11.372;2023-09-19T02:50:52;30.47;;;8.57;;
18084;SDS011;9169;44.492;11.372;2023-09-19T02:53:21;30.90;;;8.13;;
18084;SDS011;9169;44.492;11.372;2023-09-19T02:55:50;32.47;;;8.80;;
18084;SDS011;9169;44.492;11.372;2023-09-19T02:58:20;40.57;;;8.60;;
18084;SDS011;9169;44.492;11.372;2023-09-19T03:00:51;35.43;;;8.13;;
18084;SDS011;9169;44.492;11.372;2023-09-19T03:03:24;35.20;;;7.97;;
18084;SDS011;9169;44.492;11.372;2023-09-19T03:05:57;36.67;;;8.77;;
18084;SDS011;9169;44.492;11.372;2023-09-19T03:08:26;34.67;;;8.90;;
18084;SDS011;9169;44.492;11.372;2023-09-19T03:10:54;36.33;;;8.80;;
18084;SDS011;9169;44.492;11.372;2023-09-19T03:13:23;31.90;;;8.97;;
18084;SDS011;9169;44.492;11.372;2023-09-19T03:15:54;34.30;;;8.53;;
18084;SDS011;9169;44.492;11.372;2023-09-19T03:18:28;29.40;;;8.47;;
18084;SDS011;9169;44.492;11.372;2023-09-19T03:20:59;35.57;;;7.97;;
18084;SDS011;9169;44.492;11.372;2023-09-19T03:23:29;38.13;;;9.93;;
18084;SDS011;9169;44.492;11.372;2023-09-19T03:25:58;36.17;;;8.20;;
18084;SDS011;9169;44.492;11.372;2023-09-19T03:28:32;40.80;;;7.87;;
18084;SDS011;9169;44.492;11.372;2023-09-19T03:31:03;39.07;;;12.27;;
18084;SDS011;9169;44.492;11.372;2023-09-19T03:33:37;36.17;;;9.40;;
18084;SDS011;9169;44.492;11.372;2023-09-19T03:36:06;33.47;;;8.97;;
18084;SDS011;9169;44.492;11.372;2023-09-19T03:38:35;33.97;;;8.80;;
18084;SDS011;9169;44.492;11.372;2023-09-19T03:41:04;33.90;;;10.07;;
18084;SDS011;9169;44.492;11.372;2023-09-19T03:43:36;38.70;;;11.00;;
18084;SDS011;9169;44.492;11.372;2023-09-19T03:46:04;33.63;;;9.00;;
18084;SDS011;9169;44.492;11.372;2023-09-19T03:48:38;37.53;;;9.57;;
18084;SDS011;9169;44.492;11.372;2023-09-19T03:51:06;35.77;;;9.80;;
18084;SDS011;9169;44.492;11.372;2023-09-19T03:53:35;38.33;;;9.30;;
18084;SDS011;9169;44.492;11.372;2023-09-19T03:56:04;36.73;;;9.30;;
18084;SDS011;9169;44.492;11.372;2023-09-19T03:58:33;36.10;;;11.13;;
18084;SDS011;9169;44.492;11.372;2023-09-19T04:01:06;43.23;;;9.93;;
18084;SDS011;9169;44.492;11.372;2023-09-19T04:03:35;36.67;;;11.90;;
18084;SDS011;9169;44.492;11.372;2023-09-19T04:06:14;39.60;;;11.70;;
18084;SDS011;9169;44.492;11.372;2023-09-19T04:08:43;40.00;;;12.00;;
18084;SDS011;9169;44.492;11.372;2023-09-19T04:11:13;42.00;;;11.60;;
18084;SDS011;9169;44.492;11.372;2023-09-19T04:13:42;43.30;;;10.10;;
18084;SDS011;9169;44.492;11.372;2023-09-19T04:16:11;38.67;;;13.03;;
18084;SDS011;9169;44.492;11.372;2023-09-19T04:18:41;43.97;;;9.83;;
18084;SDS011;9169;44.492;11.372;2023-09-19T04:21:10;42.57;;;10.17;;
18084;SDS011;9169;44.492;11.372;2023-09-19T04:23:38;38.47;;;10.10;;
18084;SDS011;9169;44.492;11.372;2023-09-19T04:26:07;43.80;;;9.90;;
18084;SDS011;9169;44.492;11.372;2023-09-19T04:28:36;40.97;;;8.63;;
18084;SDS011;9169;44.492;11.372;2023-09-19T04:31:06;46.27;;;10.33;;
18084;SDS011;9169;44.492;11.372;2023-09-19T04:33:37;40.47;;;8.70;;
18084;SDS011;9169;44.492;11.372;2023-09-19T04:36:07;38.17;;;7.70;;
18084;SDS011;9169;44.492;11.372;2023-09-19T04:38:40;43.43;;;9.40;;
18084;SDS011;9169;44.492;11.372;2023-09-19T04:41:10;46.53;;;8.83;;
18084;SDS011;9169;44.492;11.372;2023-09-19T04:43:40;33.60;;;7.63;;
18084;SDS011;9169;44.492;11.372;2023-09-19T04:46:09;35.60;;;8.27;;
18084;SDS011;9169;44.492;11.372;2023-09-19T04:48:41;46.40;;;9.50;;
18084;SDS011;9169;44.492;11.372;2023-09-19T04:51:11;41.40;;;9.20;;
18084;SDS011;9169;44.492;11.372;2023-09-19T04:53:40;45.40;;;9.33;;
18084;SDS011;9169;44.492;11.372;2023-09-19T04:56:10;45.93;;;9.77;;
18084;SDS011;9169;44.492;11.372;2023-09-19T04:58:38;39.07;;;9.37;;
18084;SDS011;9169;44.492;11.372;2023-09-19T05:01:07;38.23;;;8.87;;
18084;SDS011;9169;44.492;11.372;2023-09-19T05:03:38;41.73;;;9.00;;
18084;SDS011;9169;44.492;11.372;2023-09-19T05:06:07;51.10;;;10.27;;
18084;SDS011;9169;44.492;11.372;2023-09-19T05:08:38;46.23;;;10.50;;
18084;SDS011;9169;44.492;11.372;2023-09-19T05:11:06;39.80;;;9.50;;
18084;SDS011;9169;44.492;11.372;2023-09-19T05:13:35;48.17;;;9.40;;
18084;SDS011;9169;44.492;11.372;2023-09-19T05:16:04;39.60;;;8.63;;
18084;SDS011;9169;44.492;11.372;2023-09-19T05:18:36;44.10;;;9.80;;
18084;SDS011;9169;44.492;11.372;2023-09-19T05:21:05;45.37;;;10.70;;
18084;SDS011;9169;44.492;11.372;2023-09-19T05:23:34;43.93;;;10.00;;
18084;SDS011;9169;44.492;11.372;2023-09-19T05:26:05;45.33;;;10.07;;
18084;SDS011;9169;44.492;11.372;2023-09-19T05:28:34;47.53;;;9.07;;
18084;SDS011;9169;44.492;11.372;2023-09-19T05:31:02;44.60;;;9.30;;
18084;SDS011;9169;44.492;11.372;2023-09-19T05:33:31;52.80;;;9.30;;
18084;SDS011;9169;44.492;11.372;2023-09-19T05:36:01;45.13;;;10.10;;
18084;SDS011;9169;44.492;11.372;2023-09-19T05:38:30;47.80;;;9.43;;
18084;SDS011;9169;44.492;11.372;2023-09-19T05:40:59;49.77;;;9.90;;
18084;SDS011;9169;44.492;11.372;2023-09-19T05:43:30;48.07;;;9.83;;
18084;SDS011;9169;44.492;11.372;2023-09-19T05:45:59;50.13;;;9.03;;
18084;SDS011;9169;44.492;11.372;2023-09-19T05:48:28;41.43;;;9.80;;
18084;SDS011;9169;44.492;11.372;2023-09-19T05:50:57;46.00;;;8.60;;
18084;SDS011;9169;44.492;11.372;2023-09-19T05:53:25;48.10;;;10.10;;
18084;SDS011;9169;44.492;11.372;2023-09-19T05:55:55;48.60;;;10.20;;
18084;SDS011;9169;44.492;11.372;2023-09-19T05:58:24;41.73;;;8.87;;
18084;SDS011;9169;44.492;11.372;2023-09-19T06:00:54;44.03;;;8.63;;
18084;SDS011;9169;44.492;11.372;2023-09-19T06:03:22;41.13;;;9.33;;
18084;SDS011;9169;44.492;11.372;2023-09-19T06:05:51;47.93;;;9.77;;
18084;SDS011;9169;44.492;11.372;2023-09-19T06:08:23;56.77;;;9.50;;
18084;SDS011;9169;44.492;11.372;2023-09-19T06:10:53;53.83;;;10.63;;
18084;SDS011;9169;44.492;11.372;2023-09-19T06:13:21;44.93;;;9.20;;
18084;SDS011;9169;44.492;11.372;2023-09-19T06:15:55;81.03;;;11.80;;
18084;SDS011;9169;44.492;11.372;2023-09-19T06:18:25;56.53;;;10.57;;
18084;SDS011;9169;44.492;11.372;2023-09-19T06:20:56;45.17;;;9.70;;
18084;SDS011;9169;44.492;11.372;2023-09-19T06:23:25;38.53;;;8.97;;
18084;SDS011;9169;44.492;11.372;2023-09-19T06:25:55;85.73;;;14.13;;
18084;SDS011;9169;44.492;11.372;2023-09-19T06:28:24;55.03;;;9.83;;
18084;SDS011;9169;44.492;11.372;2023-09-19T06:30:56;45.20;;;10.43;;
18084;SDS011;9169;44.492;11.372;2023-09-19T06:33:25;39.67;;;10.30;;
18084;SDS011;9169;44.492;11.372;2023-09-19T06:35:53;42.33;;;9.87;;
18084;SDS011;9169;44.492;11.372;2023-09-19T06:38:26;38.17;;;8.30;;
18084;SDS011;9169;44.492;11.372;2023-09-19T06:40:54;45.30;;;8.57;;
18084;SDS011;9169;44.492;11.372;2023-09-19T06:43:24;37.43;;;9.27;;
18084;SDS011;9169;44.492;11.372;2023-09-19T06:45:53;45.80;;;8.90;;
18084;SDS011;9169;44.492;11.372;2023-09-19T06:48:24;38.53;;;9.37;;
18084;SDS011;9169;44.492;11.372;2023-09-19T06:50:53;42.43;;;9.60;;
18084;SDS011;9169;44.492;11.372;2023-09-19T06:53:22;39.37;;;9.37;;
18084;SDS011;9169;44.492;11.372;2023-09-19T06:55:51;35.80;;;9.30;;
18084;SDS011;9169;44.492;11.372;2023-09-19T06:58:20;49.03;;;9.63;;
18084;SDS011;9169;44.492;11.372;2023-09-19T07:00:49;41.87;;;12.07;;
18084;SDS011;9169;44.492;11.372;2023-09-19T07:03:18;40.60;;;10.73;;
18084;SDS011;9169;44.492;11.372;2023-09-19T07:05:49;44.87;;;11.70;;
18084;SDS011;9169;44.492;11.372;2023-09-19T07:08:19;41.43;;;12.30;;
18084;SDS011;9169;44.492;11.372;2023-09-19T07:10:48;36.67;;;8.13;;
18084;SDS011;9169;44.492;11.372;2023-09-19T07:13:19;38.50;;;10.13;;
18084;SDS011;9169;44.492;11.372;2023-09-19T07:15:48;44.23;;;12.00;;
18084;SDS011;9169;44.492;11.372;2023-09-19T07:18:17;43.50;;;12.67;;
18084;SDS011;9169;44.492;11.372;2023-09-19T07:20:50;40.53;;;9.03;;
18084;SDS011;9169;44.492;11.372;2023-09-19T07:23:19;36.13;;;10.30;;
18084;SDS011;9169;44.492;11.372;2023-09-19T07:25:49;34.60;;;10.33;;
18084;SDS011;9169;44.492;11.372;2023-09-19T07:28:21;35.30;;;8.93;;
18084;SDS011;9169;44.492;11.372;2023-09-19T07:30:49;33.63;;;9.33;;
18084;SDS011;9169;44.492;11.372;2023-09-19T07:33:19;36.63;;;8.53;;
18084;SDS011;9169;44.492;11.372;2023-09-19T07:35:47;31.60;;;7.03;;
18084;SDS011;9169;44.492;11.372;2023-09-19T07:38:17;28.90;;;8.17;;
18084;SDS011;9169;44.492;11.372;2023-09-19T07:40:47;28.57;;;6.07;;
18084;SDS011;9169;44.492;11.372;2023-09-19T07:43:16;28.90;;;7.63;;
18084;SDS011;9169;44.492;11.372;2023-09-19T07:45:44;27.20;;;6.80;;
18084;SDS011;9169;44.492;11.372;2023-09-19T07:48:14;28.27;;;6.60;;
18084;SDS011;9169;44.492;11.372;2023-09-19T07:50:43;27.40;;;6.83;;
18084;SDS011;9169;44.492;11.372;2023-09-19T07:53:12;28.57;;;5.60;;
18084;SDS011;9169;44.492;11.372;2023-09-19T07:55:45;22.60;;;5.93;;
18084;SDS011;9169;44.492;11.372;2023-09-19T07:58:15;24.43;;;6.40;;
18084;SDS011;9169;44.492;11.372;2023-09-19T08:00:43;21.57;;;5.50;;
18084;SDS011;9169;44.492;11.372;2023-09-19T08:03:12;21.87;;;5.57;;
18084;SDS011;9169;44.492;11.372;2023-09-19T08:05:43;19.73;;;5.17;;
18084;SDS011;9169;44.492;11.372;2023-09-19T08:08:12;22.70;;;5.60;;
18084;SDS011;9169;44.492;11.372;2023-09-19T08:10:42;20.73;;;3.90;;
18084;SDS011;9169;44.492;11.372;2023-09-19T08:13:14;20.97;;;4.93;;
18084;SDS011;9169;44.492;11.372;2023-09-19T08:15:44;20.87;;;4.80;;
18084;SDS011;9169;44.492;11.372;2023-09-19T08:18:13;30.23;;;5.60;;
18084;SDS011;9169;44.492;11.372;2023-09-19T08:20:42;25.70;;;6.40;;
18084;SDS011;9169;44.492;11.372;2023-09-19T08:23:13;24.33;;;5.90;;
18084;SDS011;9169;44.492;11.372;2023-09-19T08:25:41;20.67;;;5.37;;
18084;SDS011;9169;44.492;11.372;2023-09-19T08:28:10;18.50;;;5.30;;
18084;SDS011;9169;44.492;11.372;2023-09-19T08:30:46;20.93;;;5.63;;
18084;SDS011;9169;44.492;11.372;2023-09-19T08:33:15;20.23;;;5.87;;
18084;SDS011;9169;44.492;11.372;2023-09-19T08:35:43;26.23;;;5.20;;
18084;SDS011;9169;44.492;11.372;2023-09-19T08:38:12;24.43;;;5.70;;
18084;SDS011;9169;44.492;11.372;2023-09-19T08:40:45;24.40;;;4.97;;
18084;SDS011;9169;44.492;11.372;2023-09-19T08:43:13;25.67;;;6.63;;
18084;SDS011;9169;44.492;11.372;2023-09-19T08:45:42;29.60;;;6.90;;
18084;SDS011;9169;44.492;11.372;2023-09-19T08:48:16;25.67;;;6.77;;
18084;SDS011;9169;44.492;11.372;2023-09-19T08:50:51;38.60;;;8.77;;
18084;SDS011;9169;44.492;11.372;2023-09-19T08:53:26;34.50;;;7.53;;
18084;SDS011;9169;44.492;11.372;2023-09-19T08:55:59;33.10;;;7.33;;
18084;SDS011;9169;44.492;11.372;2023-09-19T08:58:30;31.30;;;8.50;;
18084;SDS011;9169;44.492;11.372;2023-09-19T09:01:07;29.00;;;7.40;;
18084;SDS011;9169;44.492;11.372;2023-09-19T09:03:40;27.90;;;6.60;;
18084;SDS011;9169;44.492;11.372;2023-09-19T09:06:10;26.77;;;7.10;;
18084;SDS011;9169;44.492;11.372;2023-09-19T09:08:42;31.63;;;6.47;;
18084;SDS011;9169;44.492;11.372;2023-09-19T09:11:12;26.40;;;6.53;;
18084;SDS011;9169;44.492;11.372;2023-09-19T09:13:43;30.40;;;8.00;;
18084;SDS011;9169;44.492;11.372;2023-09-19T09:16:12;26.13;;;6.77;;
18084;SDS011;9169;44.492;11.372;2023-09-19T09:18:46;28.77;;;7.70;;
18084;SDS011;9169;44.492;11.372;2023-09-19T09:21:19;24.73;;;6.47;;
18084;SDS011;9169;44.492;11.372;2023-09-19T09:23:48;29.40;;;6.53;;
18084;SDS011;9169;44.492;11.372;2023-09-19T09:26:32;23.00;;;6.03;;
18084;SDS011;9169;44.492;11.372;2023-09-19T09:29:10;27.67;;;6.50;;
18084;SDS011;9169;44.492;11.372;2023-09-19T09:31:40;26.73;;;7.57;;
18084;SDS011;9169;44.492;11.372;2023-09-19T09:34:11;28.33;;;7.20;;
18084;SDS011;9169;44.492;11.372;2023-09-19T09:36:40;29.50;;;7.47;;
18084;SDS011;9169;44.492;11.372;2023-09-19T09:39:09;22.80;;;7.23;;
18084;SDS011;9169;44.492;11.372;2023-09-19T09:41:46;27.10;;;7.90;;
18084;SDS011;9169;44.492;11.372;2023-09-19T09:44:15;26.23;;;8.77;;
18084;SDS011;9169;44.492;11.372;2023-09-19T09:46:48;24.40;;;7.17;;
18084;SDS011;9169;44.492;11.372;2023-09-19T09:49:48;20.57;;;7.27;;
18084;SDS011;9169;44.492;11.372;2023-09-19T09:52:44;21.43;;;6.50;;
18084;SDS011;9169;44.492;11.372;2023-09-19T09:55:13;18.83;;;6.53;;
18084;SDS011;9169;44.492;11.372;2023-09-19T09:57:44;22.20;;;6.93;;
18084;SDS011;9169;44.492;11.372;2023-09-19T10:00:13;18.43;;;6.47;;
18084;SDS011;9169;44.492;11.372;2023-09-19T10:02:47;21.27;;;6.67;;
18084;SDS011;9169;44.492;11.372;2023-09-19T10:05:17;20.43;;;6.40;;
18084;SDS011;9169;44.492;11.372;2023-09-19T10:07:55;19.10;;;5.33;;
18084;SDS011;9169;44.492;11.372;2023-09-19T10:10:30;23.27;;;6.10;;
18084;SDS011;9169;44.492;11.372;2023-09-19T10:13:11;22.93;;;6.13;;
18084;SDS011;9169;44.492;11.372;2023-09-19T10:15:42;23.30;;;5.57;;
18084;SDS011;9169;44.492;11.372;2023-09-19T10:18:17;15.60;;;5.67;;
18084;SDS011;9169;44.492;11.372;2023-09-19T10:20:50;19.17;;;6.37;;
18084;SDS011;9169;44.492;11.372;2023-09-19T10:23:21;22.00;;;6.07;;
18084;SDS011;9169;44.492;11.372;2023-09-19T10:25:52;22.30;;;5.93;;
18084;SDS011;9169;44.492;11.372;2023-09-19T10:28:22;18.60;;;6.05;;
18084;SDS011;9169;44.492;11.372;2023-09-19T10:30:55;18.42;;;5.32;;
18084;SDS011;9169;44.492;11.372;2023-09-19T10:33:25;16.45;;;5.10;;
18084;SDS011;9169;44.492;11.372;2023-09-19T10:35:56;17.98;;;5.72;;
18084;SDS011;9169;44.492;11.372;2023-09-19T10:38:28;17.80;;;5.78;;
18084;SDS011;9169;44.492;11.372;2023-09-19T10:40:59;14.38;;;4.80;;
18084;SDS011;9169;44.492;11.372;2023-09-19T10:43:30;15.05;;;5.28;;
18084;SDS011;9169;44.492;11.372;2023-09-19T10:46:02;26.10;;;5.45;;
18084;SDS011;9169;44.492;11.372;2023-09-19T10:48:32;13.55;;;5.10;;
18084;SDS011;9169;44.492;11.372;2023-09-19T10:51:08;15.85;;;5.70;;
18084;SDS011;9169;44.492;11.372;2023-09-19T10:53:41;15.13;;;5.05;;
18084;SDS011;9169;44.492;11.372;2023-09-19T10:56:16;14.95;;;5.30;;
18084;SDS011;9169;44.492;11.372;2023-09-19T10:58:49;33.05;;;5.82;;
18084;SDS011;9169;44.492;11.372;2023-09-19T11:01:18;22.63;;;6.00;;
18084;SDS011;9169;44.492;11.372;2023-09-19T11:03:48;152.43;;;12.00;;
18084;SDS011;9169;44.492;11.372;2023-09-19T11:07:00;19.25;;;4.57;;
18084;SDS011;9169;44.492;11.372;2023-09-19T11:24:31;14.20;;;4.65;;
18084;SDS011;9169;44.492;11.372;2023-09-19T11:27:09;15.48;;;4.93;;
18084;SDS011;9169;44.492;11.372;2023-09-19T11:29:44;15.77;;;5.10;;
18084;SDS011;9169;44.492;11.372;2023-09-19T11:32:24;15.98;;;5.20;;
18084;SDS011;9169;44.492;11.372;2023-09-19T11:44:33;16.65;;;5.25;;
18084;SDS011;9169;44.492;11.372;2023-09-19T11:47:07;14.45;;;5.05;;
18084;SDS011;9169;44.492;11.372;2023-09-19T11:49:40;15.05;;;5.35;;
18084;SDS011;9169;44.492;11.372;2023-09-19T11:52:09;18.70;;;5.20;;
18084;SDS011;9169;44.492;11.372;2023-09-19T11:54:40;17.67;;;4.97;;
18084;SDS011;9169;44.492;11.372;2023-09-19T11:57:13;18.65;;;5.38;;
18084;SDS011;9169;44.492;11.372;2023-09-19T11:59:49;12.90;;;4.97;;
18084;SDS011;9169;44.492;11.372;2023-09-19T12:02:27;16.55;;;5.05;;
18084;SDS011;9169;44.492;11.372;2023-09-19T12:05:07;17.98;;;5.43;;
18084;SDS011;9169;44.492;11.372;2023-09-19T12:07:42;12.82;;;4.80;;
18084;SDS011;9169;44.492;11.372;2023-09-19T12:10:14;15.63;;;4.93;;
18084;SDS011;9169;44.492;11.372;2023-09-19T12:12:48;13.98;;;4.80;;
18084;SDS011;9169;44.492;11.372;2023-09-19T12:15:22;21.33;;;4.97;;
18084;SDS011;9169;44.492;11.372;2023-09-19T12:17:55;15.40;;;4.65;;
18084;SDS011;9169;44.492;11.372;2023-09-19T12:20:24;19.90;;;4.90;;
18084;SDS011;9169;44.492;11.372;2023-09-19T12:23:12;15.48;;;4.60;;
18084;SDS011;9169;44.492;11.372;2023-09-19T12:25:42;16.50;;;5.07;;
18084;SDS011;9169;44.492;11.372;2023-09-19T12:28:14;21.02;;;5.05;;
18084;SDS011;9169;44.492;11.372;2023-09-19T12:30:45;15.57;;;4.72;;
18084;SDS011;9169;44.492;11.372;2023-09-19T12:33:16;16.30;;;4.60;;
18084;SDS011;9169;44.492;11.372;2023-09-19T12:35:46;15.48;;;4.60;;
18084;SDS011;9169;44.492;11.372;2023-09-19T12:38:22;11.48;;;4.70;;
18084;SDS011;9169;44.492;11.372;2023-09-19T12:40:52;20.85;;;5.30;;
18084;SDS011;9169;44.492;11.372;2023-09-19T12:43:22;13.70;;;4.95;;
18084;SDS011;9169;44.492;11.372;2023-09-19T12:45:51;14.55;;;4.95;;
18084;SDS011;9169;44.492;11.372;2023-09-19T12:48:20;20.77;;;6.15;;
18084;SDS011;9169;44.492;11.372;2023-09-19T12:51:00;16.42;;;4.63;;
18084;SDS011;9169;44.492;11.372;2023-09-19T12:53:35;16.20;;;4.97;;
18084;SDS011;9169;44.492;11.372;2023-09-19T12:56:07;18.23;;;4.85;;
18084;SDS011;9169;44.492;11.372;2023-09-19T12:58:49;13.00;;;5.68;;
18084;SDS011;9169;44.492;11.372;2023-09-19T13:01:22;15.73;;;5.20;;
18084;SDS011;9169;44.492;11.372;2023-09-19T13:04:12;16.27;;;5.25;;
18084;SDS011;9169;44.492;11.372;2023-09-19T13:06:45;17.50;;;4.60;;
18084;SDS011;9169;44.492;11.372;2023-09-19T13:09:15;15.43;;;5.53;;
18084;SDS011;9169;44.492;11.372;2023-09-19T13:11:44;14.75;;;5.88;;
18084;SDS011;9169;44.492;11.372;2023-09-19T13:14:17;13.13;;;4.25;;
18084;SDS011;9169;44.492;11.372;2023-09-19T13:16:54;16.48;;;4.88;;
18084;SDS011;9169;44.492;11.372;2023-09-19T13:19:37;15.80;;;4.20;;
18084;SDS011;9169;44.492;11.372;2023-09-19T13:25:05;15.50;;;4.95;;
18084;SDS011;9169;44.492;11.372;2023-09-19T13:27:41;12.38;;;4.15;;
18084;SDS011;9169;44.492;11.372;2023-09-19T13:30:13;15.27;;;4.65;;
18084;SDS011;9169;44.492;11.372;2023-09-19T13:32:42;15.18;;;5.22;;
18084;SDS011;9169;44.492;11.372;2023-09-19T13:35:14;11.73;;;4.22;;
18084;SDS011;9169;44.492;11.372;2023-09-19T13:37:43;13.13;;;4.40;;
18084;SDS011;9169;44.492;11.372;2023-09-19T13:40:15;14.65;;;4.75;;
18084;SDS011;9169;44.492;11.372;2023-09-19T13:42:44;16.60;;;5.22;;
18084;SDS011;9169;44.492;11.372;2023-09-19T13:45:14;10.55;;;4.15;;
18084;SDS011;9169;44.492;11.372;2023-09-19T13:47:45;13.43;;;4.53;;
18084;SDS011;9169;44.492;11.372;2023-09-19T13:50:13;39.85;;;8.20;;
18084;SDS011;9169;44.492;11.372;2023-09-19T13:52:43;17.15;;;4.90;;
18084;SDS011;9169;44.492;11.372;2023-09-19T13:55:14;19.98;;;5.88;;
18084;SDS011;9169;44.492;11.372;2023-09-19T13:57:46;15.75;;;4.70;;
18084;SDS011;9169;44.492;11.372;2023-09-19T14:00:18;13.50;;;4.05;;
18084;SDS011;9169;44.492;11.372;2023-09-19T14:02:46;18.10;;;4.90;;
18084;SDS011;9169;44.492;11.372;2023-09-19T14:05:16;11.30;;;4.10;;
18084;SDS011;9169;44.492;11.372;2023-09-19T14:07:45;14.25;;;4.32;;
18084;SDS011;9169;44.492;11.372;2023-09-19T14:10:14;14.45;;;4.30;;
18084;SDS011;9169;44.492;11.372;2023-09-19T14:12:44;11.38;;;4.95;;
18084;SDS011;9169;44.492;11.372;2023-09-19T14:15:13;13.68;;;4.82;;
18084;SDS011;9169;44.492;11.372;2023-09-19T14:17:43;15.55;;;5.53;;
18084;SDS011;9169;44.492;11.372;2023-09-19T14:20:12;13.40;;;4.93;;
18084;SDS011;9169;44.492;11.372;2023-09-19T14:22:43;13.48;;;4.70;;
18084;SDS011;9169;44.492;11.372;2023-09-19T14:25:13;16.23;;;4.97;;
18084;SDS011;9169;44.492;11.372;2023-09-19T14:27:43;18.15;;;4.22;;
18084;SDS011;9169;44.492;11.372;2023-09-19T14:30:12;15.63;;;4.68;;
18084;SDS011;9169;44.492;11.372;2023-09-19T14:32:41;11.95;;;4.65;;
18084;SDS011;9169;44.492;11.372;2023-09-19T14:35:12;15.93;;;5.13;;
18084;SDS011;9169;44.492;11.372;2023-09-19T14:37:41;17.30;;;4.57;;
18084;SDS011;9169;44.492;11.372;2023-09-19T14:40:12;18.55;;;4.70;;
18084;SDS011;9169;44.492;11.372;2023-09-19T14:42:44;11.40;;;5.03;;
18084;SDS011;9169;44.492;11.372;2023-09-19T14:45:17;11.97;;;4.40;;
18084;SDS011;9169;44.492;11.372;2023-09-19T14:47:46;38.13;;;5.77;;
18084;SDS011;9169;44.492;11.372;2023-09-19T14:50:16;17.80;;;4.77;;
18084;SDS011;9169;44.492;11.372;2023-09-19T14:52:45;21.63;;;5.23;;
18084;SDS011;9169;44.492;11.372;2023-09-19T14:55:17;11.87;;;4.47;;
18084;SDS011;9169;44.492;11.372;2023-09-19T14:57:48;19.47;;;5.53;;
18084;SDS011;9169;44.492;11.372;2023-09-19T15:00:18;15.63;;;5.13;;
18084;SDS011;9169;44.492;11.372;2023-09-19T15:02:50;10.50;;;4.20;;
18084;SDS011;9169;44.492;11.372;2023-09-19T15:05:20;14.90;;;4.90;;
18084;SDS011;9169;44.492;11.372;2023-09-19T15:07:49;18.17;;;4.73;;
18084;SDS011;9169;44.492;11.372;2023-09-19T15:10:18;15.03;;;4.80;;
18084;SDS011;9169;44.492;11.372;2023-09-19T15:12:47;14.80;;;4.73;;
18084;SDS011;9169;44.492;11.372;2023-09-19T15:15:16;13.13;;;4.90;;
18084;SDS011;9169;44.492;11.372;2023-09-19T15:17:44;15.23;;;4.73;;
18084;SDS011;9169;44.492;11.372;2023-09-19T15:20:13;13.27;;;4.30;;
18084;SDS011;9169;44.492;11.372;2023-09-19T15:22:43;19.37;;;4.60;;
18084;SDS011;9169;44.492;11.372;2023-09-19T15:25:13;15.30;;;4.13;;